createdAt,value
2023-03-30T00:01:01.176Z,64.87
2023-03-30T00:03:29.631Z,65.17
2023-03-30T00:06:03.450Z,65.06
2023-03-30T00:08:33.594Z,66.05
2023-03-30T00:11:12.217Z,65.27
2023-03-30T00:13:40.307Z,67.16
2023-03-30T00:16:10.963Z,67.12
2023-03-30T00:18:39.775Z,67.36
2023-03-30T00:21:09.769Z,65.74
2023-03-30T00:23:38.969Z,66.32
2023-03-30T00:26:07.812Z,66.79
2023-03-30T00:28:36.026Z,66.67
2023-03-30T00:31:04.198Z,67.16
2023-03-30T00:33:44.574Z,67.04
2023-03-30T00:36:14.864Z,66.23
2023-03-30T00:38:44.239Z,66.73
2023-03-30T00:41:12.478Z,65.97
2023-03-30T00:44:00.950Z,67.98
2023-03-30T00:46:31.535Z,67.88
2023-03-30T00:49:09.807Z,68.74
2023-03-30T00:51:38.630Z,68.39
2023-03-30T00:54:09.596Z,67.98
2023-03-30T00:56:37.826Z,67.49
2023-03-30T00:59:05.877Z,66.87
2023-03-30T01:01:39.121Z,67.98
2023-03-30T01:04:08.457Z,68.35
2023-03-30T01:06:36.812Z,68.05
2023-03-30T01:09:04.811Z,68.22
2023-03-30T01:11:33.030Z,71.74
2023-03-30T01:14:03.353Z,69.30
2023-03-30T01:16:43.256Z,68.47
2023-03-30T01:19:26.737Z,68.37
2023-03-30T01:22:04.765Z,68.44
2023-03-30T01:24:55.017Z,69.45
2023-03-30T01:27:46.157Z,68.49
2023-03-30T01:30:38.894Z,70.13
2023-03-30T01:33:28.364Z,69.84
2023-03-30T01:36:31.346Z,68.38
2023-03-30T01:39:37.013Z,69.57
2023-03-30T01:42:05.275Z,69.03
2023-03-30T01:44:41.149Z,68.84
2023-03-30T01:47:16.824Z,69.03
2023-03-30T01:49:53.138Z,69.53
2023-03-30T01:52:25.652Z,70.22
2023-03-30T01:55:01.192Z,69.63
2023-03-30T01:57:39.787Z,70.40
2023-03-30T02:00:14.484Z,70.44
2023-03-30T02:02:46.678Z,69.48
2023-03-30T02:05:18.434Z,70.51
2023-03-30T02:07:51.252Z,70.79
2023-03-30T02:10:20.417Z,70.52
2023-03-30T02:12:49.739Z,73.45
2023-03-30T02:15:17.753Z,71.44
2023-03-30T02:17:48.468Z,69.89
2023-03-30T02:20:17.796Z,72.04
2023-03-30T02:22:46.128Z,74.45
2023-03-30T02:25:14.170Z,74.46
2023-03-30T02:27:42.334Z,74.51
2023-03-30T02:30:10.603Z,73.73
2023-03-30T02:32:46.511Z,74.56
2023-03-30T02:35:25.818Z,74.38
2023-03-30T02:38:30.996Z,73.81
2023-03-30T02:41:22.763Z,74.90
2023-03-30T02:43:51.287Z,75.57
2023-03-30T02:46:19.546Z,76.57
2023-03-30T02:49:06.876Z,76.33
2023-03-30T02:51:49.592Z,75.72
2023-03-30T02:54:45.562Z,77.08
2023-03-30T02:57:41.341Z,78.54
2023-03-30T03:00:43.045Z,78.65
2023-03-30T03:03:17.653Z,79.23
2023-03-30T03:05:46.038Z,78.35
2023-03-30T03:08:16.074Z,78.56
2023-03-30T03:10:44.663Z,78.15
2023-03-30T03:13:15.173Z,78.04
2023-03-30T03:15:45.756Z,78.47
2023-03-30T03:18:13.893Z,79.24
2023-03-30T03:20:42.677Z,78.67
2023-03-30T03:23:10.907Z,78.77
2023-03-30T03:25:50.892Z,79.12
2023-03-30T03:28:21.588Z,79.18
2023-03-30T03:30:53.399Z,79.54
2023-03-30T03:33:27.338Z,79.25
2023-03-30T03:36:04.153Z,79.66
2023-03-30T03:38:33.138Z,80.36
2023-03-30T03:41:01.251Z,79.83
2023-03-30T03:43:30.373Z,80.00
2023-03-30T03:45:58.816Z,79.66
2023-03-30T03:48:28.016Z,80.25
2023-03-30T03:50:58.457Z,81.07
2023-03-30T03:53:28.022Z,80.70
2023-03-30T03:56:00.538Z,80.39
2023-03-30T03:58:28.651Z,80.63
2023-03-30T04:01:00.756Z,80.80
2023-03-30T04:03:29.509Z,81.74
2023-03-30T04:06:01.246Z,81.21
2023-03-30T04:08:29.610Z,80.24
2023-03-30T04:11:09.652Z,80.26
2023-03-30T04:13:47.698Z,81.16
2023-03-30T04:16:29.089Z,80.84
2023-03-30T04:19:27.849Z,81.72
2023-03-30T04:22:26.752Z,81.42
2023-03-30T04:25:07.396Z,82.68
2023-03-30T04:27:56.902Z,81.66
2023-03-30T04:31:05.333Z,81.85
2023-03-30T04:33:56.785Z,82.17
2023-03-30T04:36:38.806Z,82.35
2023-03-30T04:39:36.210Z,83.10
2023-03-30T04:42:22.737Z,82.40
2023-03-30T04:45:26.542Z,82.99
2023-03-30T04:48:14.095Z,82.64
2023-03-30T04:51:08.168Z,83.46
2023-03-30T04:53:55.643Z,83.63
2023-03-30T04:56:36.338Z,82.92
2023-03-30T04:59:11.273Z,82.26
2023-03-30T05:01:58.933Z,82.37
2023-03-30T05:04:59.484Z,82.65
2023-03-30T05:07:54.079Z,82.52
2023-03-30T05:10:49.026Z,82.11
2023-03-30T05:13:46.131Z,82.01
2023-03-30T05:16:32.798Z,82.33
2023-03-30T05:19:24.123Z,82.01
2023-03-30T05:22:31.074Z,81.42
2023-03-30T05:25:10.564Z,81.36
2023-03-30T05:27:48.044Z,81.01
2023-03-30T05:30:27.040Z,81.47
2023-03-30T05:33:13.877Z,80.93
2023-03-30T05:36:00.877Z,81.27
2023-03-30T05:38:51.143Z,81.18
2023-03-30T05:41:41.721Z,80.79
2023-03-30T05:44:23.859Z,80.44
2023-03-30T05:47:10.537Z,80.73
2023-03-30T05:50:17.105Z,80.33
2023-03-30T05:52:54.983Z,80.15
2023-03-30T05:55:29.231Z,79.90
2023-03-30T05:58:16.793Z,79.67
2023-03-30T06:01:10.023Z,79.52
2023-03-30T06:03:40.301Z,79.05
2023-03-30T06:06:09.649Z,78.67
2023-03-30T06:08:38.228Z,78.94
2023-03-30T06:11:07.059Z,78.45
2023-03-30T06:13:46.104Z,77.66
2023-03-30T06:16:14.129Z,76.74
2023-03-30T06:18:42.298Z,76.83
2023-03-30T06:21:13.175Z,76.55
2023-03-30T06:24:01.526Z,76.91
2023-03-30T06:26:31.392Z,76.55
2023-03-30T06:28:59.580Z,76.86
2023-03-30T06:31:27.937Z,76.75
2023-03-30T06:34:09.219Z,76.16
2023-03-30T06:36:44.422Z,75.23
2023-03-30T06:39:15.663Z,75.39
2023-03-30T06:41:44.028Z,75.11
2023-03-30T06:44:27.315Z,74.20
2023-03-30T06:46:55.533Z,74.70
2023-03-30T06:49:22.456Z,74.61
2023-03-30T06:52:21.967Z,74.49
2023-03-30T06:54:50.799Z,74.50
2023-03-30T06:57:19.119Z,75.33
2023-03-30T06:59:47.430Z,75.83
2023-03-30T07:02:35.496Z,76.75
2023-03-30T07:05:10.324Z,77.34
2023-03-30T07:07:54.770Z,77.69
2023-03-30T07:10:23.294Z,77.29
2023-03-30T07:12:51.645Z,77.73
2023-03-30T07:15:19.864Z,78.36
2023-03-30T07:17:47.882Z,78.59
2023-03-30T07:20:16.133Z,78.51
2023-03-30T07:23:02.300Z,77.96
2023-03-30T07:25:31.500Z,77.31
2023-03-30T07:28:02.349Z,76.64
2023-03-30T07:30:30.736Z,76.19
2023-03-30T07:33:02.190Z,76.64
2023-03-30T07:35:30.514Z,76.70
2023-03-30T07:38:03.262Z,76.97
2023-03-30T07:40:35.820Z,76.95
2023-03-30T07:43:04.387Z,76.57
2023-03-30T07:45:33.435Z,76.85
2023-03-30T07:48:01.736Z,77.07
2023-03-30T07:50:30.926Z,77.56
2023-03-30T07:53:00.003Z,77.71
2023-03-30T07:55:29.009Z,77.66
2023-03-30T07:58:05.585Z,78.34
2023-03-30T08:00:34.301Z,79.37
2023-03-30T08:03:37.627Z,78.99
2023-03-30T08:06:06.689Z,78.92
2023-03-30T08:08:41.345Z,79.61
2023-03-30T08:11:11.371Z,79.28
2023-03-30T08:13:42.081Z,80.15
2023-03-30T08:16:10.485Z,80.48
2023-03-30T08:18:41.650Z,80.57
2023-03-30T08:21:11.130Z,79.93
2023-03-30T08:23:39.145Z,79.54
2023-03-30T08:26:07.989Z,79.24
2023-03-30T08:28:36.708Z,79.40
2023-03-30T08:31:08.546Z,78.18
2023-03-30T08:33:36.851Z,78.23
2023-03-30T08:36:05.173Z,78.50
2023-03-30T08:38:33.559Z,78.65
2023-03-30T08:41:01.901Z,79.07
2023-03-30T08:43:44.967Z,78.98
2023-03-30T08:46:15.756Z,79.62
2023-03-30T08:48:44.689Z,79.18
2023-03-30T08:51:27.291Z,78.01
2023-03-30T08:53:57.039Z,76.82
2023-03-30T08:57:07.066Z,75.84
2023-03-30T08:59:50.537Z,76.03
2023-03-30T09:02:31.291Z,76.76
2023-03-30T09:05:19.828Z,76.87
2023-03-30T09:08:09.668Z,76.74
2023-03-30T09:10:39.656Z,77.28
2023-03-30T09:13:07.829Z,77.05
2023-03-30T09:16:07.411Z,76.89
2023-03-30T09:18:36.211Z,76.34
2023-03-30T09:21:06.304Z,74.40
2023-03-30T09:23:36.262Z,71.58
2023-03-30T09:26:35.889Z,70.53
2023-03-30T09:29:14.508Z,69.67
2023-03-30T09:32:07.081Z,70.73
2023-03-30T09:34:57.109Z,68.95
2023-03-30T09:37:25.086Z,69.58
2023-03-30T09:39:53.192Z,68.81
2023-03-30T09:42:39.325Z,66.73
2023-03-30T09:45:10.390Z,67.28
2023-03-30T09:47:39.348Z,67.71
2023-03-30T09:50:09.741Z,68.56
2023-03-30T09:52:41.750Z,68.66
2023-03-30T09:55:31.305Z,68.29
2023-03-30T09:58:33.197Z,68.59
2023-03-30T10:01:14.704Z,67.81
2023-03-30T10:03:44.072Z,67.73
2023-03-30T10:06:16.302Z,68.56
2023-03-30T10:08:55.660Z,68.63
2023-03-30T10:11:41.634Z,69.31
2023-03-30T10:14:30.035Z,69.38
2023-03-30T10:16:58.288Z,69.73
2023-03-30T10:19:26.393Z,70.33
2023-03-30T10:21:59.307Z,71.44
2023-03-30T10:24:31.834Z,71.58
2023-03-30T10:27:09.972Z,71.95
2023-03-30T10:29:38.015Z,72.01
2023-03-30T10:32:12.471Z,71.53
2023-03-30T10:34:57.298Z,71.75
2023-03-30T10:37:33.285Z,70.94
2023-03-30T10:40:03.012Z,70.72
2023-03-30T10:42:31.971Z,70.69
2023-03-30T10:45:01.132Z,70.01
2023-03-30T10:47:38.069Z,68.41
2023-03-30T10:50:28.098Z,68.35
2023-03-30T10:53:15.033Z,67.20
2023-03-30T10:55:49.196Z,66.61
2023-03-30T10:58:26.446Z,64.93
2023-03-30T11:00:59.698Z,64.19
2023-03-30T11:03:29.573Z,63.96
2023-03-30T11:06:11.125Z,63.41
2023-03-30T11:08:43.228Z,64.17
2023-03-30T11:11:16.114Z,64.18
2023-03-30T11:13:47.540Z,64.89
2023-03-30T11:16:20.174Z,64.75
2023-03-30T11:19:04.050Z,64.17
2023-03-30T11:21:36.465Z,63.39
2023-03-30T11:24:14.969Z,62.90
2023-03-30T11:27:05.785Z,62.45
2023-03-30T11:29:37.813Z,62.58
2023-03-30T11:32:08.922Z,61.36
2023-03-30T11:35:10.984Z,60.95
2023-03-30T11:38:17.521Z,60.69
2023-03-30T11:41:01.758Z,61.75
2023-03-30T11:43:30.843Z,60.86
2023-03-30T11:46:17.970Z,60.54
2023-03-30T11:49:05.757Z,61.27
2023-03-30T11:51:39.104Z,61.19
2023-03-30T11:54:43.197Z,62.18
2023-03-30T11:57:45.840Z,63.40
2023-03-30T12:00:27.152Z,63.85
2023-03-30T12:03:22.174Z,63.85
2023-03-30T12:06:08.102Z,63.58
2023-03-30T12:08:36.524Z,63.07
2023-03-30T12:11:09.569Z,63.32
2023-03-30T12:13:50.163Z,63.56
2023-03-30T12:16:32.152Z,64.37
2023-03-30T12:19:09.476Z,64.70
2023-03-30T12:21:55.987Z,65.29
2023-03-30T12:24:41.993Z,65.65
2023-03-30T12:27:11.740Z,66.80
2023-03-30T12:32:29.230Z,68.00
2023-03-30T12:34:58.172Z,68.39
2023-03-30T12:37:35.166Z,68.37
2023-03-30T12:40:10.754Z,68.12
2023-03-30T12:42:47.063Z,67.76
2023-03-30T12:45:15.139Z,66.95
2023-03-30T12:48:05.054Z,66.96
2023-03-30T12:50:50.991Z,66.75
2023-03-30T12:53:19.016Z,66.73
2023-03-30T12:55:53.708Z,66.83
2023-03-30T12:58:43.893Z,66.74
2023-03-30T13:01:18.128Z,66.79
2023-03-30T13:04:10.814Z,66.42
2023-03-30T13:06:43.678Z,66.17
2023-03-30T13:09:14.818Z,66.40
2023-03-30T13:11:49.266Z,66.92
2023-03-30T13:14:34.545Z,67.24
2023-03-30T13:17:02.613Z,67.27
2023-03-30T13:19:33.811Z,67.77
2023-03-30T13:22:11.251Z,68.30
2023-03-30T13:24:42.386Z,68.68
2023-03-30T13:27:13.954Z,68.66
2023-03-30T13:29:42.623Z,68.96
2023-03-30T13:32:38.490Z,69.41
2023-03-30T13:35:33.218Z,69.60
2023-03-30T13:38:22.039Z,69.95
2023-03-30T13:41:12.097Z,70.08
2023-03-30T13:44:06.607Z,70.40
2023-03-30T13:46:54.720Z,70.43
2023-03-30T13:49:35.404Z,69.98
2023-03-30T13:52:11.432Z,70.06
2023-03-30T13:57:13.804Z,70.12
2023-03-30T13:59:44.368Z,70.77
2023-03-30T14:02:15.592Z,71.30
2023-03-30T14:04:44.992Z,71.95
2023-03-30T14:07:18.441Z,72.39
2023-03-30T14:10:07.063Z,72.42
2023-03-30T14:12:36.505Z,72.70
2023-03-30T14:15:23.813Z,72.80
2023-03-30T14:17:54.140Z,72.83
2023-03-30T14:20:44.228Z,73.26
2023-03-30T14:23:18.408Z,73.35
2023-03-30T14:25:46.647Z,73.51
2023-03-30T14:28:19.879Z,73.50
2023-03-30T14:30:51.981Z,73.53
2023-03-30T14:33:20.732Z,73.25
2023-03-30T14:35:59.585Z,73.42
2023-03-30T14:38:40.231Z,73.63
2023-03-30T14:41:19.938Z,73.60
2023-03-30T14:44:11.961Z,73.79
2023-03-30T14:46:42.792Z,74.43
2023-03-30T14:49:16.143Z,74.73
2023-03-30T14:51:46.417Z,74.87
2023-03-30T14:54:17.389Z,75.01
2023-03-30T14:56:46.700Z,75.21
2023-03-30T14:59:15.004Z,75.02
2023-03-30T15:01:44.330Z,75.10
2023-03-30T15:04:16.099Z,74.89
2023-03-30T15:06:46.217Z,74.55
2023-03-30T15:09:22.340Z,74.20
2023-03-30T15:12:01.665Z,74.03
2023-03-30T15:14:34.199Z,73.78
2023-03-30T15:17:08.897Z,73.37
2023-03-30T15:19:38.064Z,72.67
2023-03-30T15:22:35.547Z,71.93
2023-03-30T15:25:09.697Z,71.50
2023-03-30T15:27:38.394Z,71.37
2023-03-30T15:30:07.180Z,70.15
2023-03-30T15:32:38.761Z,69.72
2023-03-30T15:35:08.787Z,70.10
2023-03-30T15:37:37.193Z,69.46
2023-03-30T15:40:29.724Z,69.86
2023-03-30T15:43:25.337Z,70.14
2023-03-30T15:46:01.944Z,70.24
2023-03-30T15:48:47.274Z,70.49
2023-03-30T15:51:43.020Z,70.73
2023-03-30T15:54:35.646Z,70.90
2023-03-30T15:57:04.986Z,71.36
2023-03-30T15:59:37.059Z,71.76
2023-03-30T16:02:20.043Z,72.59
2023-03-30T16:04:50.093Z,72.28
2023-03-30T16:07:23.473Z,72.50
2023-03-30T16:09:51.832Z,72.61
2023-03-30T16:12:22.424Z,73.10
2023-03-30T16:14:50.886Z,73.79
2023-03-30T16:17:19.446Z,73.85
2023-03-30T16:19:47.580Z,74.21
2023-03-30T16:22:16.099Z,74.45
2023-03-30T16:24:44.222Z,74.55
2023-03-30T16:27:12.375Z,74.61
2023-03-30T16:29:40.549Z,74.72
2023-03-30T16:32:08.733Z,75.34
2023-03-30T16:34:37.169Z,75.74
2023-03-30T16:37:05.285Z,75.98
2023-03-30T16:39:33.267Z,76.52
2023-03-30T16:42:01.249Z,77.07
2023-03-30T16:44:29.259Z,76.93
2023-03-30T16:46:57.573Z,77.71
2023-03-30T16:49:26.105Z,78.09
2023-03-30T16:51:57.621Z,78.22
2023-03-30T16:54:32.133Z,79.03
2023-03-30T16:57:01.336Z,79.60
2023-03-30T16:59:31.852Z,79.80
2023-03-30T17:02:00.162Z,80.30
2023-03-30T17:04:28.835Z,81.95
2023-03-30T17:06:56.986Z,82.76
2023-03-30T17:09:25.722Z,83.85
2023-03-30T17:11:53.814Z,84.07
2023-03-30T17:14:24.528Z,84.58
2023-03-30T17:16:52.755Z,87.41
2023-03-30T17:19:20.955Z,88.75
2023-03-30T17:21:49.026Z,89.09
2023-03-30T17:24:17.111Z,88.28
2023-03-30T17:26:45.576Z,89.04
2023-03-30T17:29:14.038Z,88.64
2023-03-30T17:31:46.018Z,93.78
2023-03-30T17:34:15.175Z,99.90
2023-03-30T17:36:43.467Z,95.26
2023-03-30T17:39:13.481Z,95.10
2023-03-30T17:41:41.855Z,95.47
2023-03-30T17:44:10.107Z,94.12
2023-03-30T17:46:38.322Z,94.70
2023-03-30T17:49:21.108Z,94.72
2023-03-30T17:51:49.850Z,99.30
2023-03-30T17:54:17.948Z,97.58
2023-03-30T17:56:46.615Z,96.96
2023-03-30T17:59:15.417Z,98.91
2023-03-30T18:01:43.595Z,98.50
2023-03-30T18:04:11.958Z,99.06
2023-03-30T18:06:40.919Z,100.00
2023-03-30T18:09:16.545Z,100.00
2023-03-30T18:11:44.676Z,99.93
2023-03-30T18:14:12.950Z,100.00
2023-03-30T18:16:41.938Z,100.00
2023-03-30T18:19:11.496Z,100.00
2023-03-30T18:21:39.683Z,100.00
2023-03-30T18:24:07.847Z,100.00
2023-03-30T18:26:36.053Z,100.00
2023-03-30T18:29:06.735Z,100.00
2023-03-30T18:31:34.739Z,100.00
2023-03-30T18:34:03.542Z,100.00
2023-03-30T18:36:31.681Z,100.00
2023-03-30T18:39:00.496Z,100.00
2023-03-30T18:41:28.792Z,100.00
2023-03-30T18:43:57.006Z,100.00
2023-03-30T18:46:25.845Z,100.00
2023-03-30T18:48:54.153Z,100.00
2023-03-30T18:51:22.140Z,100.00
2023-03-30T18:53:50.196Z,100.00
2023-03-30T18:56:20.653Z,100.00
2023-03-30T18:58:49.288Z,100.00
2023-03-30T19:01:17.426Z,100.00
2023-03-30T19:03:45.927Z,100.00
2023-03-30T19:06:19.899Z,100.00
2023-03-30T19:08:48.164Z,100.00
2023-03-30T19:11:19.823Z,100.00
2023-03-30T19:13:48.007Z,100.00
2023-03-30T19:16:20.852Z,100.00
2023-03-30T19:18:49.818Z,100.00
2023-03-30T19:21:18.409Z,100.00
2023-03-30T19:23:46.723Z,100.00
2023-03-30T19:26:14.914Z,100.00
2023-03-30T19:28:43.164Z,100.00
2023-03-30T19:31:16.568Z,100.00
2023-03-30T19:33:44.996Z,100.00
2023-03-30T19:36:13.345Z,100.00
2023-03-30T19:38:44.347Z,100.00
2023-03-30T19:41:12.893Z,100.00
2023-03-30T19:43:41.155Z,100.00
2023-03-30T19:46:09.235Z,100.00
2023-03-30T19:48:37.403Z,100.00
2023-03-30T19:51:05.736Z,100.00
2023-03-30T19:53:34.099Z,100.00
2023-03-30T19:56:02.185Z,100.00
2023-03-30T19:58:30.717Z,100.00
2023-03-30T20:01:06.106Z,100.00
2023-03-30T20:03:37.903Z,100.00
2023-03-30T20:06:12.664Z,100.00
2023-03-30T20:08:41.458Z,100.00
2023-03-30T20:11:10.293Z,100.00
2023-03-30T20:13:38.755Z,100.00
2023-03-30T20:16:07.406Z,100.00
2023-03-30T20:18:35.977Z,100.00
2023-03-30T20:21:04.609Z,100.00
2023-03-30T20:23:33.320Z,100.00
2023-03-30T20:26:04.597Z,100.00
2023-03-30T20:28:32.901Z,100.00
2023-03-30T20:31:02.036Z,100.00
2023-03-30T20:33:33.184Z,100.00
2023-03-30T20:36:02.077Z,100.00
2023-03-30T20:38:30.644Z,100.00
2023-03-30T20:41:06.411Z,100.00
2023-03-30T20:43:55.826Z,100.00
2023-03-30T20:46:37.375Z,100.00
2023-03-30T20:49:08.406Z,100.00
2023-03-30T20:51:39.927Z,100.00
2023-03-30T20:54:08.507Z,100.00
2023-03-30T20:56:37.016Z,100.00
2023-03-30T20:59:05.143Z,100.00
2023-03-30T21:01:34.335Z,100.00
2023-03-30T21:04:02.846Z,100.00
2023-03-30T21:06:31.491Z,100.00
2023-03-30T21:09:01.843Z,100.00
2023-03-30T21:11:30.330Z,100.00
2023-03-30T21:13:58.485Z,100.00
2023-03-30T21:16:26.846Z,100.00
2023-03-30T21:18:55.103Z,100.00
2023-03-30T21:21:23.294Z,100.00
2023-03-30T21:23:51.691Z,100.00
2023-03-30T21:26:19.752Z,100.00
2023-03-30T21:28:48.045Z,100.00
2023-03-30T21:31:17.301Z,100.00
2023-03-30T21:33:45.766Z,100.00
2023-03-30T21:36:13.859Z,100.00
2023-03-30T21:38:42.060Z,100.00
2023-03-30T21:41:14.642Z,100.00
2023-03-30T21:43:44.629Z,100.00
2023-03-30T21:46:15.011Z,100.00
2023-03-30T21:48:43.854Z,100.00
2023-03-30T21:51:14.257Z,100.00
2023-03-30T21:53:43.195Z,100.00
2023-03-30T21:56:11.379Z,100.00
2023-03-30T21:58:39.688Z,100.00
2023-03-30T22:01:12.283Z,100.00
2023-03-30T22:03:42.038Z,100.00
2023-03-30T22:06:11.279Z,100.00
2023-03-30T22:08:39.596Z,100.00
2023-03-30T22:11:10.957Z,100.00
2023-03-30T22:13:39.012Z,100.00
2023-03-30T22:16:10.814Z,100.00
2023-03-30T22:18:39.398Z,100.00
2023-03-30T22:21:07.832Z,100.00
2023-03-30T22:23:36.444Z,100.00
2023-03-30T22:26:04.755Z,100.00
2023-03-30T22:28:32.924Z,100.00
2023-03-30T22:31:01.302Z,100.00
2023-03-30T22:33:29.466Z,100.00
2023-03-30T22:35:57.519Z,100.00
2023-03-30T22:38:26.193Z,100.00
2023-03-30T22:41:04.623Z,100.00
2023-03-30T22:43:36.142Z,100.00
2023-03-30T22:46:07.548Z,100.00
2023-03-30T22:48:35.876Z,100.00
2023-03-30T22:51:04.289Z,100.00
2023-03-30T22:53:32.605Z,100.00
2023-03-30T22:56:01.155Z,100.00
2023-03-30T22:58:29.148Z,100.00
2023-03-30T23:01:06.167Z,100.00
2023-03-30T23:03:34.455Z,100.00
2023-03-30T23:06:03.388Z,100.00
2023-03-30T23:08:31.774Z,100.00
2023-03-30T23:11:05.241Z,100.00
2023-03-30T23:13:37.812Z,100.00
2023-03-30T23:16:06.873Z,100.00
2023-03-30T23:18:35.831Z,100.00
2023-03-30T23:21:07.055Z,100.00
2023-03-30T23:23:35.655Z,100.00
2023-03-30T23:26:09.018Z,100.00
2023-03-30T23:28:42.010Z,100.00
2023-03-30T23:31:15.121Z,100.00
2023-03-30T23:33:43.517Z,100.00
2023-03-30T23:36:17.466Z,100.00
2023-03-30T23:38:45.934Z,100.00
2023-03-30T23:41:15.002Z,100.00
2023-03-30T23:43:43.234Z,100.00
2023-03-30T23:46:11.672Z,100.00
2023-03-30T23:48:39.971Z,100.00
2023-03-30T23:51:08.128Z,100.00
2023-03-30T23:53:40.454Z,100.00
2023-03-30T23:56:17.796Z,100.00
2023-03-30T23:58:46.384Z,100.00
